sensor_id;sensor_type;location;lat;lon;timestamp;P1;durP1;ratioP1;P2;durP2;ratioP2
15814;SDS011;8008;50.024;8.172;2023-03-13T04:02:49;8.40;;;3.70;;
15814;SDS011;8008;50.024;8.172;2023-03-13T04:05:17;12.50;;;4.00;;
15814;SDS011;8008;50.024;8.172;2023-03-13T04:07:45;11.85;;;4.00;;
15814;SDS011;8008;50.024;8.172;2023-03-13T04:10:13;12.68;;;4.05;;
15814;SDS011;8008;50.024;8.172;2023-03-13T04:12:43;9.45;;;3.78;;
15814;SDS011;8008;50.024;8.172;2023-03-13T04:15:11;14.35;;;4.13;;
15814;SDS011;8008;50.024;8.172;2023-03-13T04:17:41;12.43;;;3.65;;
15814;SDS011;8008;50.024;8.172;2023-03-13T04:20:10;10.82;;;3.75;;
15814;SDS011;8008;50.024;8.172;2023-03-13T04:22:39;12.02;;;3.97;;
15814;SDS011;8008;50.024;8.172;2023-03-13T04:25:09;10.60;;;3.80;;
15814;SDS011;8008;50.024;8.172;2023-03-13T04:27:37;12.38;;;3.65;;
15814;SDS011;8008;50.024;8.172;2023-03-13T04:30:07;10.45;;;3.45;;
15814;SDS011;8008;50.024;8.172;2023-03-13T04:32:37;10.30;;;3.83;;
15814;SDS011;8008;50.024;8.172;2023-03-13T04:35:05;7.88;;;3.55;;
15814;SDS011;8008;50.024;8.172;2023-03-13T04:38:04;7.00;;;2.70;;
15814;SDS011;8008;50.024;8.172;2023-03-13T04:40:52;4.50;;;2.10;;
15814;SDS011;8008;50.024;8.172;2023-03-13T04:43:35;2.30;;;1.30;;
15814;SDS011;8008;50.024;8.172;2023-03-13T04:46:29;1.77;;;1.20;;
15814;SDS011;8008;50.024;8.172;2023-03-13T04:49:17;2.67;;;1.23;;
15814;SDS011;8008;50.024;8.172;2023-03-13T04:52:04;1.80;;;1.10;;
15814;SDS011;8008;50.024;8.172;2023-03-13T04:55:07;1.40;;;1.08;;
15814;SDS011;8008;50.024;8.172;2023-03-13T04:57:43;1.73;;;1.40;;
15814;SDS011;8008;50.024;8.172;2023-03-13T05:00:23;8.20;;;4.40;;
15814;SDS011;8008;50.024;8.172;2023-03-13T05:03:10;3.90;;;3.38;;
15814;SDS011;8008;50.024;8.172;2023-03-13T05:05:57;2.28;;;1.35;;
15814;SDS011;8008;50.024;8.172;2023-03-13T05:08:57;2.10;;;1.38;;
15814;SDS011;8008;50.024;8.172;2023-03-13T05:11:37;3.08;;;1.50;;
15814;SDS011;8008;50.024;8.172;2023-03-13T05:14:36;2.13;;;1.23;;
15814;SDS011;8008;50.024;8.172;2023-03-13T05:17:30;1.40;;;1.30;;
15814;SDS011;8008;50.024;8.172;2023-03-13T05:20:14;1.48;;;1.20;;
15814;SDS011;8008;50.024;8.172;2023-03-13T05:22:52;2.85;;;1.48;;
15814;SDS011;8008;50.024;8.172;2023-03-13T05:25:45;1.30;;;1.20;;
15814;SDS011;8008;50.024;8.172;2023-03-13T05:28:38;10.60;;;6.15;;
15814;SDS011;8008;50.024;8.172;2023-03-13T05:31:15;4.72;;;2.75;;
15814;SDS011;8008;50.024;8.172;2023-03-13T05:34:18;3.22;;;1.90;;
15814;SDS011;8008;50.024;8.172;2023-03-13T05:36:52;3.55;;;2.33;;
15814;SDS011;8008;50.024;8.172;2023-03-13T05:39:33;2.30;;;2.00;;
15814;SDS011;8008;50.024;8.172;2023-03-13T05:42:18;2.58;;;1.70;;
15814;SDS011;8008;50.024;8.172;2023-03-13T05:45:12;1.65;;;1.52;;
15814;SDS011;8008;50.024;8.172;2023-03-13T05:47:49;2.33;;;1.50;;
15814;SDS011;8008;50.024;8.172;2023-03-13T05:50:39;2.63;;;1.50;;
15814;SDS011;8008;50.024;8.172;2023-03-13T05:53:36;1.48;;;1.35;;
15814;SDS011;8008;50.024;8.172;2023-03-13T05:56:23;1.60;;;1.50;;
15814;SDS011;8008;50.024;8.172;2023-03-13T05:59:02;2.30;;;1.48;;
15814;SDS011;8008;50.024;8.172;2023-03-13T06:01:49;1.50;;;1.40;;
15814;SDS011;8008;50.024;8.172;2023-03-13T06:04:25;1.70;;;1.60;;
15814;SDS011;8008;50.024;8.172;2023-03-13T06:06:53;1.60;;;1.50;;
15814;SDS011;8008;50.024;8.172;2023-03-13T06:09:22;3.20;;;1.52;;
15814;SDS011;8008;50.024;8.172;2023-03-13T06:11:54;1.52;;;1.42;;
15814;SDS011;8008;50.024;8.172;2023-03-13T06:14:22;1.45;;;1.35;;
15814;SDS011;8008;50.024;8.172;2023-03-13T06:17:16;1.60;;;1.38;;
15814;SDS011;8008;50.024;8.172;2023-03-13T06:19:45;2.55;;;1.40;;
15814;SDS011;8008;50.024;8.172;2023-03-13T06:22:14;1.52;;;1.35;;
15814;SDS011;8008;50.024;8.172;2023-03-13T06:24:42;1.42;;;1.27;;
15814;SDS011;8008;50.024;8.172;2023-03-13T06:27:13;1.42;;;1.30;;
15814;SDS011;8008;50.024;8.172;2023-03-13T06:29:41;1.50;;;1.40;;
15814;SDS011;8008;50.024;8.172;2023-03-13T06:32:09;1.45;;;1.35;;
15814;SDS011;8008;50.024;8.172;2023-03-13T06:34:37;1.50;;;1.40;;
15814;SDS011;8008;50.024;8.172;2023-03-13T06:37:05;2.15;;;1.40;;
15814;SDS011;8008;50.024;8.172;2023-03-13T06:39:33;1.20;;;1.20;;
15814;SDS011;8008;50.024;8.172;2023-03-13T06:42:01;1.15;;;1.13;;
15814;SDS011;8008;50.024;8.172;2023-03-13T06:44:30;1.40;;;1.30;;
15814;SDS011;8008;50.024;8.172;2023-03-13T06:46:58;1.20;;;1.10;;
15814;SDS011;8008;50.024;8.172;2023-03-13T06:49:26;1.00;;;1.00;;
15814;SDS011;8008;50.024;8.172;2023-03-13T06:51:55;1.83;;;1.30;;
15814;SDS011;8008;50.024;8.172;2023-03-13T06:54:24;1.40;;;1.30;;
15814;SDS011;8008;50.024;8.172;2023-03-13T06:56:52;0.98;;;0.98;;
15814;SDS011;8008;50.024;8.172;2023-03-13T06:59:20;1.48;;;1.20;;
15814;SDS011;8008;50.024;8.172;2023-03-13T07:01:50;1.42;;;1.10;;
15814;SDS011;8008;50.024;8.172;2023-03-13T07:04:18;1.27;;;1.20;;
15814;SDS011;8008;50.024;8.172;2023-03-13T07:06:46;1.20;;;1.20;;
15814;SDS011;8008;50.024;8.172;2023-03-13T07:09:14;1.38;;;1.27;;
15814;SDS011;8008;50.024;8.172;2023-03-13T07:11:42;1.50;;;1.35;;
15814;SDS011;8008;50.024;8.172;2023-03-13T07:14:10;1.50;;;1.27;;
15814;SDS011;8008;50.024;8.172;2023-03-13T07:16:42;1.40;;;1.30;;
15814;SDS011;8008;50.024;8.172;2023-03-13T07:19:12;2.20;;;1.42;;
15814;SDS011;8008;50.024;8.172;2023-03-13T07:21:41;2.35;;;1.58;;
15814;SDS011;8008;50.024;8.172;2023-03-13T07:24:09;1.50;;;1.40;;
15814;SDS011;8008;50.024;8.172;2023-03-13T07:26:37;1.73;;;1.60;;
15814;SDS011;8008;50.024;8.172;2023-03-13T07:29:19;2.50;;;1.73;;
15814;SDS011;8008;50.024;8.172;2023-03-13T07:31:47;2.10;;;1.90;;
15814;SDS011;8008;50.024;8.172;2023-03-13T07:34:17;2.58;;;1.88;;
15814;SDS011;8008;50.024;8.172;2023-03-13T07:36:45;3.25;;;2.42;;
15814;SDS011;8008;50.024;8.172;2023-03-13T07:39:13;3.95;;;2.85;;
15814;SDS011;8008;50.024;8.172;2023-03-13T07:41:40;8.25;;;3.88;;
15814;SDS011;8008;50.024;8.172;2023-03-13T07:44:14;4.35;;;3.22;;
15814;SDS011;8008;50.024;8.172;2023-03-13T07:46:41;3.53;;;2.97;;
15814;SDS011;8008;50.024;8.172;2023-03-13T07:49:09;2.92;;;2.55;;
15814;SDS011;8008;50.024;8.172;2023-03-13T07:51:39;3.08;;;2.47;;
15814;SDS011;8008;50.024;8.172;2023-03-13T07:54:09;2.55;;;2.35;;
15814;SDS011;8008;50.024;8.172;2023-03-13T07:56:37;3.13;;;2.83;;
15814;SDS011;8008;50.024;8.172;2023-03-13T07:59:05;3.40;;;2.60;;
15814;SDS011;8008;50.024;8.172;2023-03-13T08:01:33;2.65;;;2.38;;
15814;SDS011;8008;50.024;8.172;2023-03-13T08:04:01;2.78;;;2.38;;
15814;SDS011;8008;50.024;8.172;2023-03-13T08:06:31;2.30;;;2.10;;
15814;SDS011;8008;50.024;8.172;2023-03-13T08:09:03;2.53;;;2.33;;
15814;SDS011;8008;50.024;8.172;2023-03-13T08:11:32;2.63;;;2.10;;
15814;SDS011;8008;50.024;8.172;2023-03-13T08:14:00;3.40;;;2.70;;
15814;SDS011;8008;50.024;8.172;2023-03-13T08:16:28;2.53;;;2.13;;
15814;SDS011;8008;50.024;8.172;2023-03-13T08:19:00;5.03;;;2.50;;
15814;SDS011;8008;50.024;8.172;2023-03-13T08:21:30;2.47;;;2.28;;
15814;SDS011;8008;50.024;8.172;2023-03-13T08:23:59;2.92;;;2.40;;
15814;SDS011;8008;50.024;8.172;2023-03-13T08:26:33;3.17;;;2.30;;
15814;SDS011;8008;50.024;8.172;2023-03-13T08:29:03;2.72;;;2.20;;
15814;SDS011;8008;50.024;8.172;2023-03-13T08:31:33;2.65;;;2.22;;
15814;SDS011;8008;50.024;8.172;2023-03-13T08:34:02;5.50;;;3.45;;
15814;SDS011;8008;50.024;8.172;2023-03-13T08:36:31;9.18;;;5.55;;
15814;SDS011;8008;50.024;8.172;2023-03-13T08:39:00;6.15;;;4.38;;
15814;SDS011;8008;50.024;8.172;2023-03-13T08:41:31;10.57;;;5.88;;
15814;SDS011;8008;50.024;8.172;2023-03-13T08:44:02;4.45;;;3.22;;
15814;SDS011;8008;50.024;8.172;2023-03-13T08:46:32;3.67;;;3.08;;
15814;SDS011;8008;50.024;8.172;2023-03-13T08:49:02;4.38;;;3.30;;
15814;SDS011;8008;50.024;8.172;2023-03-13T08:51:30;3.38;;;2.95;;
15814;SDS011;8008;50.024;8.172;2023-03-13T08:53:59;4.93;;;2.42;;
15814;SDS011;8008;50.024;8.172;2023-03-13T08:56:28;3.33;;;2.30;;
15814;SDS011;8008;50.024;8.172;2023-03-13T08:58:58;2.75;;;2.30;;
15814;SDS011;8008;50.024;8.172;2023-03-13T09:01:28;3.85;;;2.38;;
15814;SDS011;8008;50.024;8.172;2023-03-13T09:03:58;2.47;;;2.28;;
15814;SDS011;8008;50.024;8.172;2023-03-13T09:06:30;2.20;;;2.00;;
15814;SDS011;8008;50.024;8.172;2023-03-13T09:08:58;2.58;;;2.00;;
15814;SDS011;8008;50.024;8.172;2023-03-13T09:11:26;2.58;;;2.17;;
15814;SDS011;8008;50.024;8.172;2023-03-13T09:13:55;3.83;;;1.80;;
15814;SDS011;8008;50.024;8.172;2023-03-13T09:16:25;4.22;;;2.00;;
15814;SDS011;8008;50.024;8.172;2023-03-13T09:18:55;2.30;;;2.10;;
15814;SDS011;8008;50.024;8.172;2023-03-13T09:21:25;2.38;;;2.10;;
15814;SDS011;8008;50.024;8.172;2023-03-13T09:23:54;3.65;;;2.10;;
15814;SDS011;8008;50.024;8.172;2023-03-13T09:26:23;3.00;;;2.00;;
15814;SDS011;8008;50.024;8.172;2023-03-13T09:28:51;2.08;;;1.90;;
15814;SDS011;8008;50.024;8.172;2023-03-13T09:31:22;3.35;;;2.20;;
15814;SDS011;8008;50.024;8.172;2023-03-13T09:33:52;5.07;;;2.03;;
15814;SDS011;8008;50.024;8.172;2023-03-13T09:36:20;2.85;;;2.10;;
15814;SDS011;8008;50.024;8.172;2023-03-13T09:38:49;4.47;;;2.45;;
15814;SDS011;8008;50.024;8.172;2023-03-13T09:41:22;3.85;;;2.10;;
15814;SDS011;8008;50.024;8.172;2023-03-13T09:43:52;2.78;;;2.30;;
15814;SDS011;8008;50.024;8.172;2023-03-13T09:46:30;2.53;;;1.98;;
15814;SDS011;8008;50.024;8.172;2023-03-13T09:49:03;3.35;;;2.30;;
15814;SDS011;8008;50.024;8.172;2023-03-13T09:51:36;2.95;;;2.38;;
15814;SDS011;8008;50.024;8.172;2023-03-13T09:54:08;4.00;;;2.67;;
15814;SDS011;8008;50.024;8.172;2023-03-13T09:56:46;4.10;;;2.72;;
15814;SDS011;8008;50.024;8.172;2023-03-13T09:59:21;2.97;;;2.67;;
15814;SDS011;8008;50.024;8.172;2023-03-13T10:01:57;4.15;;;3.00;;
15814;SDS011;8008;50.024;8.172;2023-03-13T10:04:28;2.90;;;2.60;;
15814;SDS011;8008;50.024;8.172;2023-03-13T10:07:01;5.78;;;3.00;;
15814;SDS011;8008;50.024;8.172;2023-03-13T10:09:30;2.75;;;2.55;;
15814;SDS011;8008;50.024;8.172;2023-03-13T10:12:03;4.38;;;2.50;;
15814;SDS011;8008;50.024;8.172;2023-03-13T10:14:37;3.10;;;2.63;;
15814;SDS011;8008;50.024;8.172;2023-03-13T10:17:12;4.55;;;2.72;;
15814;SDS011;8008;50.024;8.172;2023-03-13T10:19:52;2.88;;;2.63;;
15814;SDS011;8008;50.024;8.172;2023-03-13T10:22:24;3.97;;;3.10;;
15814;SDS011;8008;50.024;8.172;2023-03-13T10:24:56;5.95;;;3.03;;
15814;SDS011;8008;50.024;8.172;2023-03-13T10:27:26;3.80;;;3.00;;
15814;SDS011;8008;50.024;8.172;2023-03-13T10:29:53;4.88;;;3.40;;
15814;SDS011;8008;50.024;8.172;2023-03-13T10:32:23;3.90;;;3.20;;
15814;SDS011;8008;50.024;8.172;2023-03-13T10:34:51;3.85;;;3.42;;
15814;SDS011;8008;50.024;8.172;2023-03-13T10:37:24;3.22;;;2.92;;
15814;SDS011;8008;50.024;8.172;2023-03-13T10:39:52;5.18;;;3.08;;
15814;SDS011;8008;50.024;8.172;2023-03-13T10:42:25;4.65;;;3.30;;
15814;SDS011;8008;50.024;8.172;2023-03-13T10:44:57;5.75;;;3.33;;
15814;SDS011;8008;50.024;8.172;2023-03-13T10:47:33;3.53;;;3.22;;
15814;SDS011;8008;50.024;8.172;2023-03-13T10:50:01;5.55;;;3.25;;
15814;SDS011;8008;50.024;8.172;2023-03-13T10:52:32;3.97;;;3.42;;
15814;SDS011;8008;50.024;8.172;2023-03-13T10:55:03;7.93;;;3.85;;
15814;SDS011;8008;50.024;8.172;2023-03-13T10:57:36;7.25;;;3.67;;
15814;SDS011;8008;50.024;8.172;2023-03-13T11:00:22;4.20;;;3.80;;
15814;SDS011;8008;50.024;8.172;2023-03-13T11:02:57;4.65;;;3.60;;
15814;SDS011;8008;50.024;8.172;2023-03-13T11:05:29;8.73;;;3.78;;
15814;SDS011;8008;50.024;8.172;2023-03-13T11:11:01;5.18;;;3.40;;
15814;SDS011;8008;50.024;8.172;2023-03-13T11:13:34;4.70;;;3.20;;
15814;SDS011;8008;50.024;8.172;2023-03-13T11:16:11;5.55;;;3.28;;
15814;SDS011;8008;50.024;8.172;2023-03-13T11:18:51;5.45;;;3.08;;
15814;SDS011;8008;50.024;8.172;2023-03-13T11:21:36;4.35;;;2.90;;
15814;SDS011;8008;50.024;8.172;2023-03-13T11:24:12;5.70;;;2.78;;
15814;SDS011;8008;50.024;8.172;2023-03-13T11:26:47;5.50;;;3.05;;
15814;SDS011;8008;50.024;8.172;2023-03-13T11:29:32;3.92;;;2.80;;
15814;SDS011;8008;50.024;8.172;2023-03-13T11:32:09;5.00;;;2.67;;
15814;SDS011;8008;50.024;8.172;2023-03-13T11:34:47;3.38;;;2.50;;
15814;SDS011;8008;50.024;8.172;2023-03-13T11:37:22;6.28;;;2.67;;
15814;SDS011;8008;50.024;8.172;2023-03-13T11:42:49;5.35;;;2.70;;
15814;SDS011;8008;50.024;8.172;2023-03-13T11:45:52;2.65;;;2.45;;
15814;SDS011;8008;50.024;8.172;2023-03-13T11:48:49;2.90;;;2.60;;
15814;SDS011;8008;50.024;8.172;2023-03-13T11:51:34;3.22;;;2.33;;
15814;SDS011;8008;50.024;8.172;2023-03-13T11:54:18;4.40;;;2.95;;
15814;SDS011;8008;50.024;8.172;2023-03-13T11:57:02;5.25;;;2.42;;
15814;SDS011;8008;50.024;8.172;2023-03-13T11:59:39;3.17;;;2.47;;
15814;SDS011;8008;50.024;8.172;2023-03-13T12:02:17;3.35;;;2.63;;
15814;SDS011;8008;50.024;8.172;2023-03-13T12:04:53;4.75;;;2.75;;
15814;SDS011;8008;50.024;8.172;2023-03-13T12:07:27;4.25;;;2.63;;
15814;SDS011;8008;50.024;8.172;2023-03-13T12:09:59;5.05;;;3.30;;
15814;SDS011;8008;50.024;8.172;2023-03-13T12:12:36;4.50;;;3.30;;
15814;SDS011;8008;50.024;8.172;2023-03-13T12:15:13;6.53;;;3.92;;
15814;SDS011;8008;50.024;8.172;2023-03-13T12:17:48;6.25;;;3.08;;
15814;SDS011;8008;50.024;8.172;2023-03-13T12:20:21;8.65;;;4.25;;
15814;SDS011;8008;50.024;8.172;2023-03-13T12:22:55;5.13;;;3.88;;
15814;SDS011;8008;50.024;8.172;2023-03-13T12:25:29;4.18;;;2.80;;
15814;SDS011;8008;50.024;8.172;2023-03-13T12:28:09;3.35;;;2.97;;
15814;SDS011;8008;50.024;8.172;2023-03-13T12:30:51;3.08;;;2.50;;
15814;SDS011;8008;50.024;8.172;2023-03-13T12:33:28;4.68;;;2.95;;
15814;SDS011;8008;50.024;8.172;2023-03-13T12:36:03;3.60;;;3.15;;
15814;SDS011;8008;50.024;8.172;2023-03-13T12:38:38;8.25;;;5.15;;
15814;SDS011;8008;50.024;8.172;2023-03-13T12:41:10;11.02;;;5.70;;
15814;SDS011;8008;50.024;8.172;2023-03-13T12:43:50;4.75;;;3.10;;
15814;SDS011;8008;50.024;8.172;2023-03-13T12:46:35;3.92;;;3.20;;
15814;SDS011;8008;50.024;8.172;2023-03-13T12:49:13;6.20;;;3.30;;
15814;SDS011;8008;50.024;8.172;2023-03-13T12:52:09;5.03;;;3.15;;
15814;SDS011;8008;50.024;8.172;2023-03-13T12:54:53;3.80;;;3.08;;
15814;SDS011;8008;50.024;8.172;2023-03-13T12:57:41;5.78;;;3.60;;
15814;SDS011;8008;50.024;8.172;2023-03-13T13:00:30;3.47;;;3.00;;
15814;SDS011;8008;50.024;8.172;2023-03-13T13:03:08;4.43;;;3.28;;
15814;SDS011;8008;50.024;8.172;2023-03-13T13:05:56;7.00;;;3.40;;
15814;SDS011;8008;50.024;8.172;2023-03-13T13:08:39;3.40;;;2.90;;
15814;SDS011;8008;50.024;8.172;2023-03-13T13:17:42;3.83;;;3.03;;
15814;SDS011;8008;50.024;8.172;2023-03-13T13:20:32;4.70;;;3.50;;
15814;SDS011;8008;50.024;8.172;2023-03-13T13:23:28;3.88;;;2.92;;
15814;SDS011;8008;50.024;8.172;2023-03-13T13:32:38;4.43;;;2.80;;
15814;SDS011;8008;50.024;8.172;2023-03-13T13:35:22;5.47;;;2.83;;
15814;SDS011;8008;50.024;8.172;2023-03-13T13:38:19;4.70;;;2.90;;
15814;SDS011;8008;50.024;8.172;2023-03-13T13:41:19;3.30;;;2.38;;
15814;SDS011;8008;50.024;8.172;2023-03-13T13:44:18;4.15;;;2.78;;
15814;SDS011;8008;50.024;8.172;2023-03-13T13:46:52;2.88;;;2.47;;
15814;SDS011;8008;50.024;8.172;2023-03-13T13:49:29;2.88;;;2.47;;
15814;SDS011;8008;50.024;8.172;2023-03-13T13:55:02;2.92;;;2.50;;
15814;SDS011;8008;50.024;8.172;2023-03-13T13:57:57;2.50;;;2.30;;
15814;SDS011;8008;50.024;8.172;2023-03-13T14:00:26;2.90;;;2.60;;
15814;SDS011;8008;50.024;8.172;2023-03-13T14:03:01;2.83;;;2.28;;
15814;SDS011;8008;50.024;8.172;2023-03-13T14:05:31;3.17;;;2.40;;
15814;SDS011;8008;50.024;8.172;2023-03-13T14:08:02;3.70;;;2.20;;
15814;SDS011;8008;50.024;8.172;2023-03-13T14:10:36;6.63;;;2.22;;
15814;SDS011;8008;50.024;8.172;2023-03-13T14:13:10;4.45;;;2.63;;
15814;SDS011;8008;50.024;8.172;2023-03-13T14:15:42;4.20;;;2.90;;
15814;SDS011;8008;50.024;8.172;2023-03-13T14:18:14;3.85;;;2.55;;
15814;SDS011;8008;50.024;8.172;2023-03-13T14:20:53;3.72;;;2.30;;
15814;SDS011;8008;50.024;8.172;2023-03-13T14:23:31;3.55;;;2.50;;
15814;SDS011;8008;50.024;8.172;2023-03-13T14:26:09;4.50;;;3.42;;
15814;SDS011;8008;50.024;8.172;2023-03-13T14:28:44;6.72;;;4.78;;
15814;SDS011;8008;50.024;8.172;2023-03-13T14:31:20;5.95;;;4.75;;
15814;SDS011;8008;50.024;8.172;2023-03-13T14:33:53;5.18;;;3.15;;
15814;SDS011;8008;50.024;8.172;2023-03-13T14:36:23;5.28;;;2.60;;
15814;SDS011;8008;50.024;8.172;2023-03-13T14:38:53;2.75;;;2.53;;
15814;SDS011;8008;50.024;8.172;2023-03-13T14:41:27;4.13;;;2.58;;
15814;SDS011;8008;50.024;8.172;2023-03-13T14:44:00;3.25;;;2.55;;
15814;SDS011;8008;50.024;8.172;2023-03-13T14:46:32;5.13;;;2.60;;
15814;SDS011;8008;50.024;8.172;2023-03-13T14:49:06;7.28;;;3.33;;
15814;SDS011;8008;50.024;8.172;2023-03-13T14:51:43;17.15;;;3.15;;
15814;SDS011;8008;50.024;8.172;2023-03-13T14:54:23;10.52;;;2.28;;
15814;SDS011;8008;50.024;8.172;2023-03-13T14:57:04;13.73;;;2.65;;
15814;SDS011;8008;50.024;8.172;2023-03-13T14:59:41;26.45;;;15.20;;
15814;SDS011;8008;50.024;8.172;2023-03-13T15:05:28;3.88;;;1.90;;
15814;SDS011;8008;50.024;8.172;2023-03-13T15:08:09;3.22;;;1.90;;
15814;SDS011;8008;50.024;8.172;2023-03-13T15:10:39;15.80;;;1.70;;
15814;SDS011;8008;50.024;8.172;2023-03-13T15:13:22;1.63;;;1.10;;
15814;SDS011;8008;50.024;8.172;2023-03-13T15:18:48;9.20;;;4.13;;
15814;SDS011;8008;50.024;8.172;2023-03-13T15:21:20;1.40;;;1.30;;
15814;SDS011;8008;50.024;8.172;2023-03-13T15:23:51;3.42;;;1.65;;
15814;SDS011;8008;50.024;8.172;2023-03-13T15:26:21;4.40;;;1.60;;
15814;SDS011;8008;50.024;8.172;2023-03-13T15:28:52;2.65;;;1.70;;
15814;SDS011;8008;50.024;8.172;2023-03-13T15:31:22;5.97;;;2.25;;
15814;SDS011;8008;50.024;8.172;2023-03-13T15:33:53;8.40;;;4.40;;
15814;SDS011;8008;50.024;8.172;2023-03-13T15:36:24;2.90;;;2.50;;
15814;SDS011;8008;50.024;8.172;2023-03-13T15:38:54;5.80;;;3.30;;
15814;SDS011;8008;50.024;8.172;2023-03-13T15:41:24;2.17;;;1.90;;
15814;SDS011;8008;50.024;8.172;2023-03-13T15:43:56;2.13;;;1.77;;
15814;SDS011;8008;50.024;8.172;2023-03-13T15:46:24;2.30;;;2.00;;
15814;SDS011;8008;50.024;8.172;2023-03-13T15:48:54;1.90;;;1.70;;
15814;SDS011;8008;50.024;8.172;2023-03-13T15:51:22;6.22;;;1.80;;
15814;SDS011;8008;50.024;8.172;2023-03-13T15:53:50;4.32;;;1.77;;
15814;SDS011;8008;50.024;8.172;2023-03-13T15:56:20;3.30;;;2.00;;
15814;SDS011;8008;50.024;8.172;2023-03-13T15:58:49;4.70;;;2.30;;
15814;SDS011;8008;50.024;8.172;2023-03-13T16:01:17;3.22;;;2.22;;
15814;SDS011;8008;50.024;8.172;2023-03-13T16:03:48;3.05;;;2.15;;
15814;SDS011;8008;50.024;8.172;2023-03-13T16:06:17;3.38;;;2.33;;
15814;SDS011;8008;50.024;8.172;2023-03-13T16:09:04;3.80;;;2.13;;
15814;SDS011;8008;50.024;8.172;2023-03-13T16:11:34;2.30;;;2.10;;
15814;SDS011;8008;50.024;8.172;2023-03-13T16:14:02;3.45;;;2.20;;
15814;SDS011;8008;50.024;8.172;2023-03-13T16:16:30;4.53;;;1.75;;
15814;SDS011;8008;50.024;8.172;2023-03-13T16:19:03;4.80;;;1.85;;
15814;SDS011;8008;50.024;8.172;2023-03-13T16:21:33;4.80;;;2.40;;
15814;SDS011;8008;50.024;8.172;2023-03-13T16:24:01;3.67;;;2.05;;
15814;SDS011;8008;50.024;8.172;2023-03-13T16:26:30;6.38;;;2.22;;
15814;SDS011;8008;50.024;8.172;2023-03-13T16:29:01;2.00;;;1.80;;
15814;SDS011;8008;50.024;8.172;2023-03-13T16:31:29;3.08;;;1.52;;
15814;SDS011;8008;50.024;8.172;2023-03-13T16:33:59;1.80;;;1.60;;
15814;SDS011;8008;50.024;8.172;2023-03-13T16:36:28;2.85;;;1.60;;
15814;SDS011;8008;50.024;8.172;2023-03-13T16:38:57;2.03;;;1.50;;
15814;SDS011;8008;50.024;8.172;2023-03-13T16:41:27;3.30;;;1.42;;
15814;SDS011;8008;50.024;8.172;2023-03-13T16:43:55;2.40;;;1.55;;
15814;SDS011;8008;50.024;8.172;2023-03-13T16:46:26;2.83;;;2.08;;
15814;SDS011;8008;50.024;8.172;2023-03-13T16:49:06;2.15;;;1.43;;
15814;SDS011;8008;50.024;8.172;2023-03-13T16:51:37;1.83;;;1.60;;
15814;SDS011;8008;50.024;8.172;2023-03-13T16:54:05;1.70;;;1.60;;
15814;SDS011;8008;50.024;8.172;2023-03-13T16:56:37;2.22;;;1.85;;
15814;SDS011;8008;50.024;8.172;2023-03-13T16:59:09;2.67;;;2.10;;
15814;SDS011;8008;50.024;8.172;2023-03-13T17:01:40;3.13;;;2.20;;
15814;SDS011;8008;50.024;8.172;2023-03-13T17:04:08;4.00;;;1.60;;
15814;SDS011;8008;50.024;8.172;2023-03-13T17:06:38;4.80;;;1.70;;
15814;SDS011;8008;50.024;8.172;2023-03-13T17:09:09;2.78;;;2.08;;
15814;SDS011;8008;50.024;8.172;2023-03-13T17:11:39;1.98;;;1.45;;
15814;SDS011;8008;50.024;8.172;2023-03-13T17:14:07;2.55;;;1.90;;
15814;SDS011;8008;50.024;8.172;2023-03-13T17:16:37;2.85;;;1.90;;
15814;SDS011;8008;50.024;8.172;2023-03-13T17:19:10;4.57;;;2.95;;
15814;SDS011;8008;50.024;8.172;2023-03-13T17:21:40;3.35;;;2.67;;
15814;SDS011;8008;50.024;8.172;2023-03-13T17:24:08;4.10;;;3.13;;
15814;SDS011;8008;50.024;8.172;2023-03-13T17:26:36;4.50;;;2.95;;
15814;SDS011;8008;50.024;8.172;2023-03-13T17:29:06;3.40;;;3.00;;
15814;SDS011;8008;50.024;8.172;2023-03-13T17:31:37;5.53;;;3.40;;
15814;SDS011;8008;50.024;8.172;2023-03-13T17:34:06;3.85;;;2.95;;
15814;SDS011;8008;50.024;8.172;2023-03-13T17:36:36;3.83;;;2.95;;
15814;SDS011;8008;50.024;8.172;2023-03-13T17:39:05;4.00;;;3.50;;
15814;SDS011;8008;50.024;8.172;2023-03-13T17:41:34;5.45;;;4.70;;
15814;SDS011;8008;50.024;8.172;2023-03-13T17:44:02;10.57;;;4.60;;
15814;SDS011;8008;50.024;8.172;2023-03-13T17:46:33;4.95;;;4.22;;
15814;SDS011;8008;50.024;8.172;2023-03-13T17:49:05;7.47;;;4.68;;
15814;SDS011;8008;50.024;8.172;2023-03-13T17:51:33;6.05;;;4.20;;
15814;SDS011;8008;50.024;8.172;2023-03-13T17:54:03;6.18;;;4.85;;
15814;SDS011;8008;50.024;8.172;2023-03-13T17:56:32;5.85;;;4.63;;
15814;SDS011;8008;50.024;8.172;2023-03-13T17:59:04;7.88;;;5.72;;
15814;SDS011;8008;50.024;8.172;2023-03-13T18:01:36;9.52;;;6.68;;
15814;SDS011;8008;50.024;8.172;2023-03-13T18:04:04;10.77;;;7.40;;
15814;SDS011;8008;50.024;8.172;2023-03-13T18:06:36;13.63;;;8.30;;
15814;SDS011;8008;50.024;8.172;2023-03-13T18:09:10;13.48;;;9.70;;
15814;SDS011;8008;50.024;8.172;2023-03-13T18:11:41;16.40;;;9.45;;
15814;SDS011;8008;50.024;8.172;2023-03-13T18:14:09;15.23;;;9.48;;
15814;SDS011;8008;50.024;8.172;2023-03-13T18:16:38;15.35;;;9.10;;
15814;SDS011;8008;50.024;8.172;2023-03-13T18:19:10;14.60;;;9.13;;
15814;SDS011;8008;50.024;8.172;2023-03-13T18:21:41;14.00;;;8.25;;
15814;SDS011;8008;50.024;8.172;2023-03-13T18:24:11;12.43;;;8.18;;
15814;SDS011;8008;50.024;8.172;2023-03-13T18:26:40;11.73;;;7.63;;
15814;SDS011;8008;50.024;8.172;2023-03-13T18:29:11;11.23;;;7.70;;
15814;SDS011;8008;50.024;8.172;2023-03-13T18:31:40;11.40;;;7.75;;
15814;SDS011;8008;50.024;8.172;2023-03-13T18:34:09;6.90;;;4.72;;
15814;SDS011;8008;50.024;8.172;2023-03-13T18:36:37;11.75;;;8.35;;
15814;SDS011;8008;50.024;8.172;2023-03-13T18:39:05;11.80;;;8.65;;
15814;SDS011;8008;50.024;8.172;2023-03-13T18:41:35;9.98;;;8.05;;
15814;SDS011;8008;50.024;8.172;2023-03-13T18:44:03;9.50;;;6.78;;
15814;SDS011;8008;50.024;8.172;2023-03-13T18:46:31;6.05;;;4.93;;
15814;SDS011;8008;50.024;8.172;2023-03-13T18:49:00;6.50;;;4.50;;
15814;SDS011;8008;50.024;8.172;2023-03-13T18:51:28;5.00;;;4.18;;
15814;SDS011;8008;50.024;8.172;2023-03-13T18:53:56;6.90;;;4.25;;
15814;SDS011;8008;50.024;8.172;2023-03-13T18:56:25;4.57;;;3.53;;
15814;SDS011;8008;50.024;8.172;2023-03-13T18:58:57;4.20;;;3.38;;
15814;SDS011;8008;50.024;8.172;2023-03-13T19:01:26;5.13;;;3.33;;
15814;SDS011;8008;50.024;8.172;2023-03-13T19:03:55;5.38;;;3.63;;
15814;SDS011;8008;50.024;8.172;2023-03-13T19:06:26;3.42;;;3.00;;
15814;SDS011;8008;50.024;8.172;2023-03-13T19:08:57;4.00;;;3.17;;
15814;SDS011;8008;50.024;8.172;2023-03-13T19:11:26;3.75;;;2.75;;
15814;SDS011;8008;50.024;8.172;2023-03-13T19:13:55;4.80;;;2.70;;
15814;SDS011;8008;50.024;8.172;2023-03-13T19:16:26;2.58;;;1.65;;
15814;SDS011;8008;50.024;8.172;2023-03-13T19:18:57;2.35;;;1.50;;
15814;SDS011;8008;50.024;8.172;2023-03-13T19:21:25;2.72;;;1.80;;
15814;SDS011;8008;50.024;8.172;2023-03-13T19:23:55;2.70;;;1.60;;
15814;SDS011;8008;50.024;8.172;2023-03-13T19:26:29;3.78;;;1.63;;
15814;SDS011;8008;50.024;8.172;2023-03-13T19:29:00;3.10;;;1.58;;
15814;SDS011;8008;50.024;8.172;2023-03-13T19:31:28;1.45;;;1.30;;
15814;SDS011;8008;50.024;8.172;2023-03-13T19:33:56;2.20;;;1.40;;
15814;SDS011;8008;50.024;8.172;2023-03-13T19:36:25;2.13;;;1.52;;
15814;SDS011;8008;50.024;8.172;2023-03-13T19:38:57;2.78;;;2.20;;
15814;SDS011;8008;50.024;8.172;2023-03-13T19:41:25;1.77;;;1.30;;
15814;SDS011;8008;50.024;8.172;2023-03-13T19:43:53;0.90;;;0.82;;
15814;SDS011;8008;50.024;8.172;2023-03-13T19:46:23;1.27;;;0.90;;
15814;SDS011;8008;50.024;8.172;2023-03-13T19:48:53;1.67;;;1.17;;
15814;SDS011;8008;50.024;8.172;2023-03-13T19:51:22;1.92;;;1.30;;
15814;SDS011;8008;50.024;8.172;2023-03-13T19:53:51;3.42;;;1.40;;
15814;SDS011;8008;50.024;8.172;2023-03-13T19:56:21;2.75;;;1.25;;
15814;SDS011;8008;50.024;8.172;2023-03-13T19:58:51;1.48;;;0.98;;
15814;SDS011;8008;50.024;8.172;2023-03-13T20:01:24;2.03;;;1.70;;
15814;SDS011;8008;50.024;8.172;2023-03-13T20:03:52;3.10;;;2.17;;
15814;SDS011;8008;50.024;8.172;2023-03-13T20:06:21;4.95;;;2.40;;
15814;SDS011;8008;50.024;8.172;2023-03-13T20:08:52;10.98;;;5.45;;